San Carlos, California
Current Conditions -  °F | °C
As of 2:47 PM on Monday 20 Oct 2014 (Local Time) from KSQL Reporting Station
Broken Clouds Broken Clouds  
Wind Chill: 66°   Ceiling: 4900
Heat Index: 66°   Visibility: 10mi
Dew Point: 55°   Wind: 6mph
Humidity: 68%   Direction: 70°ENE
Pressure: 29.98"   Gusts: NA
Location:  37.5°N, 122.26°W
Report Text: KSQL 202147Z 07005KT 10SM FEW025 BKN049 19/13 A2998
Loading
Personal Weather Stations






























Interactive Weather Map
Tropical Storm Tracking
New forecast layout! Learn more

10-Day Weather Forecast

Advertisements
Track Severe Weather on mobile